ES-0155 weather

Aeródromo Tarancón
Tarancón, Castilla-La Mancha, Spain

Public forecast

Using degrees Celsius for public forecast. Weather courtesy of forecast.io.

Closest aviation weather report (METAR) to Aeródromo Tarancón

Closest report is Torrejón Airport, 36.1 nm (66.9 km) NW. Retrieved 2019/10/18 22:00 UTC (13 minutes ago):

LETO 182200Z 17004KT 9999 SCT040 14/13 Q1014 NOSIG

Closest aviation forecast (TAF) to Aeródromo Tarancón

Closest forecast is Torrejón Airport, 36.1 nm (66.9 km) NW. Retrieved 2019/10/18 18:27 UTC (4 hours ago):

TAF LETO 181700Z 1818/1918 22012KT 9999 SCT030 TX21/1915Z TN11/1906Z TEMPO 1902/1910 2000 BR BKN008 PROB30 TEMPO 1903/1908 1000 BCFG BKN003 PROB40 TEMPO 1914/1918 20015G27KT